sensor_id;sensor_type;location;lat;lon;timestamp;temperature;humidity
68274;SHT30;55104;47.356;19.448;2023-05-29T00:01:08;16.62;73.76
68274;SHT30;55104;47.356;19.448;2023-05-29T00:04:11;16.59;73.90
68274;SHT30;55104;47.356;19.448;2023-05-29T00:07:16;16.63;73.53
68274;SHT30;55104;47.356;19.448;2023-05-29T00:10:18;16.56;74.01
68274;SHT30;55104;47.356;19.448;2023-05-29T00:13:20;16.52;74.04
68274;SHT30;55104;47.356;19.448;2023-05-29T00:16:23;16.51;74.12
68274;SHT30;55104;47.356;19.448;2023-05-29T00:19:25;16.51;73.99
68274;SHT30;55104;47.356;19.448;2023-05-29T00:22:27;16.49;74.31
68274;SHT30;55104;47.356;19.448;2023-05-29T00:25:29;16.44;74.33
68274;SHT30;55104;47.356;19.448;2023-05-29T00:28:31;16.37;74.57
68274;SHT30;55104;47.356;19.448;2023-05-29T00:31:34;16.37;74.48
68274;SHT30;55104;47.356;19.448;2023-05-29T00:34:37;16.37;74.42
68274;SHT30;55104;47.356;19.448;2023-05-29T00:37:39;16.37;74.64
68274;SHT30;55104;47.356;19.448;2023-05-29T00:40:42;16.38;74.42
68274;SHT30;55104;47.356;19.448;2023-05-29T00:43:44;16.24;74.85
68274;SHT30;55104;47.356;19.448;2023-05-29T00:46:48;16.21;74.78
68274;SHT30;55104;47.356;19.448;2023-05-29T00:49:51;16.17;74.91
68274;SHT30;55104;47.356;19.448;2023-05-29T00:52:53;16.14;74.96
68274;SHT30;55104;47.356;19.448;2023-05-29T00:55:55;16.13;74.72
68274;SHT30;55104;47.356;19.448;2023-05-29T00:58:58;16.07;74.86
68274;SHT30;55104;47.356;19.448;2023-05-29T01:02:02;16.01;75.05
68274;SHT30;55104;47.356;19.448;2023-05-29T01:05:05;15.96;75.16
68274;SHT30;55104;47.356;19.448;2023-05-29T01:08:07;15.90;75.40
68274;SHT30;55104;47.356;19.448;2023-05-29T01:11:27;15.83;75.54
68274;SHT30;55104;47.356;19.448;2023-05-29T01:25:27;15.76;75.36
68274;SHT30;55104;47.356;19.448;2023-05-29T01:29:03;15.85;74.62
68274;SHT30;55104;47.356;19.448;2023-05-29T01:32:07;15.91;74.33
68274;SHT30;55104;47.356;19.448;2023-05-29T01:35:09;15.91;74.39
68274;SHT30;55104;47.356;19.448;2023-05-29T01:38:12;15.87;74.55
68274;SHT30;55104;47.356;19.448;2023-05-29T01:41:15;15.82;74.89
68274;SHT30;55104;47.356;19.448;2023-05-29T01:44:18;15.80;74.50
68274;SHT30;55104;47.356;19.448;2023-05-29T01:47:21;15.80;74.54
68274;SHT30;55104;47.356;19.448;2023-05-29T01:50:24;15.85;74.38
68274;SHT30;55104;47.356;19.448;2023-05-29T01:53:26;15.76;74.58
68274;SHT30;55104;47.356;19.448;2023-05-29T01:56:29;15.76;74.47
68274;SHT30;55104;47.356;19.448;2023-05-29T01:59:33;15.74;74.30
68274;SHT30;55104;47.356;19.448;2023-05-29T02:02:38;15.74;74.21
68274;SHT30;55104;47.356;19.448;2023-05-29T02:05:40;15.83;73.82
68274;SHT30;55104;47.356;19.448;2023-05-29T02:08:43;15.79;74.07
68274;SHT30;55104;47.356;19.448;2023-05-29T02:11:45;15.73;74.28
68274;SHT30;55104;47.356;19.448;2023-05-29T02:14:47;15.65;74.79
68274;SHT30;55104;47.356;19.448;2023-05-29T02:17:50;15.61;74.71
68274;SHT30;55104;47.356;19.448;2023-05-29T02:20:52;15.59;74.75
68274;SHT30;55104;47.356;19.448;2023-05-29T02:23:56;15.56;75.01
68274;SHT30;55104;47.356;19.448;2023-05-29T02:26:58;15.48;75.03
68274;SHT30;55104;47.356;19.448;2023-05-29T02:30:00;15.44;75.19
68274;SHT30;55104;47.356;19.448;2023-05-29T02:33:02;15.44;75.36
68274;SHT30;55104;47.356;19.448;2023-05-29T02:36:07;15.42;75.32
68274;SHT30;55104;47.356;19.448;2023-05-29T02:39:12;15.45;75.34
68274;SHT30;55104;47.356;19.448;2023-05-29T02:42:14;15.44;75.17
68274;SHT30;55104;47.356;19.448;2023-05-29T02:45:17;15.42;75.21
68274;SHT30;55104;47.356;19.448;2023-05-29T02:48:19;15.39;75.51
68274;SHT30;55104;47.356;19.448;2023-05-29T02:51:21;15.36;75.65
68274;SHT30;55104;47.356;19.448;2023-05-29T02:54:23;15.39;75.31
68274;SHT30;55104;47.356;19.448;2023-05-29T02:57:27;15.41;75.41
68274;SHT30;55104;47.356;19.448;2023-05-29T03:00:29;15.44;75.17
68274;SHT30;55104;47.356;19.448;2023-05-29T03:03:32;15.41;75.37
68274;SHT30;55104;47.356;19.448;2023-05-29T03:06:35;15.41;75.23
68274;SHT30;55104;47.356;19.448;2023-05-29T03:09:38;15.41;75.13
68274;SHT30;55104;47.356;19.448;2023-05-29T03:12:40;15.46;74.88
68274;SHT30;55104;47.356;19.448;2023-05-29T03:15:43;15.48;74.99
68274;SHT30;55104;47.356;19.448;2023-05-29T03:18:45;15.49;75.07
68274;SHT30;55104;47.356;19.448;2023-05-29T03:21:50;15.46;75.09
68274;SHT30;55104;47.356;19.448;2023-05-29T03:24:52;15.42;75.32
68274;SHT30;55104;47.356;19.448;2023-05-29T03:27:55;15.42;75.17
68274;SHT30;55104;47.356;19.448;2023-05-29T03:30:57;15.45;75.10
68274;SHT30;55104;47.356;19.448;2023-05-29T03:33:59;15.48;75.39
68274;SHT30;55104;47.356;19.448;2023-05-29T03:37:09;15.53;74.98
68274;SHT30;55104;47.356;19.448;2023-05-29T03:40:12;15.69;74.70
68274;SHT30;55104;47.356;19.448;2023-05-29T03:43:14;15.72;74.32
68274;SHT30;55104;47.356;19.448;2023-05-29T03:46:17;15.78;74.36
68274;SHT30;55104;47.356;19.448;2023-05-29T03:49:19;15.83;74.06
68274;SHT30;55104;47.356;19.448;2023-05-29T03:52:21;15.90;73.96
68274;SHT30;55104;47.356;19.448;2023-05-29T03:55:26;16.01;73.79
68274;SHT30;55104;47.356;19.448;2023-05-29T03:58:29;16.07;73.36
68274;SHT30;55104;47.356;19.448;2023-05-29T04:01:32;16.25;72.63
68274;SHT30;55104;47.356;19.448;2023-05-29T04:04:35;16.37;72.60
68274;SHT30;55104;47.356;19.448;2023-05-29T04:07:37;16.48;72.42
68274;SHT30;55104;47.356;19.448;2023-05-29T04:10:40;16.55;71.94
68274;SHT30;55104;47.356;19.448;2023-05-29T04:13:42;16.69;71.78
68274;SHT30;55104;47.356;19.448;2023-05-29T04:16:44;16.77;71.53
68274;SHT30;55104;47.356;19.448;2023-05-29T04:19:47;16.89;71.21
68274;SHT30;55104;47.356;19.448;2023-05-29T04:22:51;17.02;70.57
68274;SHT30;55104;47.356;19.448;2023-05-29T04:25:54;17.18;70.61
68274;SHT30;55104;47.356;19.448;2023-05-29T04:29:00;17.27;70.15
68274;SHT30;55104;47.356;19.448;2023-05-29T04:32:03;17.34;70.10
68274;SHT30;55104;47.356;19.448;2023-05-29T04:35:06;17.55;69.74
68274;SHT30;55104;47.356;19.448;2023-05-29T04:38:12;17.61;69.01
68274;SHT30;55104;47.356;19.448;2023-05-29T04:41:15;17.76;68.91
68274;SHT30;55104;47.356;19.448;2023-05-29T04:44:17;17.68;68.97
68274;SHT30;55104;47.356;19.448;2023-05-29T04:47:23;17.76;69.12
68274;SHT30;55104;47.356;19.448;2023-05-29T04:50:25;17.75;69.09
68274;SHT30;55104;47.356;19.448;2023-05-29T04:53:29;17.82;69.37
68274;SHT30;55104;47.356;19.448;2023-05-29T04:56:32;17.93;69.00
68274;SHT30;55104;47.356;19.448;2023-05-29T04:59:34;18.20;68.68
68274;SHT30;55104;47.356;19.448;2023-05-29T05:02:37;18.40;67.23
68274;SHT30;55104;47.356;19.448;2023-05-29T05:05:39;18.69;67.49
68274;SHT30;55104;47.356;19.448;2023-05-29T05:08:43;19.04;65.75
68274;SHT30;55104;47.356;19.448;2023-05-29T05:11:45;19.07;65.70
68274;SHT30;55104;47.356;19.448;2023-05-29T05:14:47;19.32;65.80
68274;SHT30;55104;47.356;19.448;2023-05-29T05:17:49;19.53;64.68
68274;SHT30;55104;47.356;19.448;2023-05-29T05:20:52;19.81;63.22
68274;SHT30;55104;47.356;19.448;2023-05-29T05:23:54;20.24;62.39
68274;SHT30;55104;47.356;19.448;2023-05-29T05:27:00;20.72;61.09
68274;SHT30;55104;47.356;19.448;2023-05-29T05:30:03;21.03;59.46
68274;SHT30;55104;47.356;19.448;2023-05-29T05:33:06;20.13;61.18
68274;SHT30;55104;47.356;19.448;2023-05-29T05:36:08;19.74;63.14
68274;SHT30;55104;47.356;19.448;2023-05-29T05:39:12;19.55;63.35
68274;SHT30;55104;47.356;19.448;2023-05-29T05:42:19;19.57;63.56
68274;SHT30;55104;47.356;19.448;2023-05-29T05:45:27;19.66;63.57
68274;SHT30;55104;47.356;19.448;2023-05-29T05:48:29;19.65;63.49
68274;SHT30;55104;47.356;19.448;2023-05-29T05:51:31;19.74;64.25
68274;SHT30;55104;47.356;19.448;2023-05-29T05:54:33;19.68;64.69
68274;SHT30;55104;47.356;19.448;2023-05-29T05:57:36;19.89;63.82
68274;SHT30;55104;47.356;19.448;2023-05-29T06:00:39;19.95;63.03
68274;SHT30;55104;47.356;19.448;2023-05-29T06:03:41;19.97;63.24
68274;SHT30;55104;47.356;19.448;2023-05-29T06:06:44;19.82;63.11
68274;SHT30;55104;47.356;19.448;2023-05-29T06:09:46;19.78;63.16
68274;SHT30;55104;47.356;19.448;2023-05-29T06:12:49;19.65;63.55
68274;SHT30;55104;47.356;19.448;2023-05-29T06:15:57;19.75;63.71
68274;SHT30;55104;47.356;19.448;2023-05-29T06:19:00;19.74;64.17
68274;SHT30;55104;47.356;19.448;2023-05-29T06:22:05;19.74;63.20
68274;SHT30;55104;47.356;19.448;2023-05-29T06:25:11;19.86;63.68
68274;SHT30;55104;47.356;19.448;2023-05-29T06:28:13;20.06;63.76
68274;SHT30;55104;47.356;19.448;2023-05-29T06:31:16;20.20;63.80
68274;SHT30;55104;47.356;19.448;2023-05-29T06:34:18;20.34;62.97
68274;SHT30;55104;47.356;19.448;2023-05-29T06:37:21;20.33;63.13
68274;SHT30;55104;47.356;19.448;2023-05-29T06:40:23;20.29;62.90
68274;SHT30;55104;47.356;19.448;2023-05-29T06:43:27;20.23;63.73
68274;SHT30;55104;47.356;19.448;2023-05-29T06:46:32;20.29;63.45
68274;SHT30;55104;47.356;19.448;2023-05-29T06:49:35;20.37;63.39
68274;SHT30;55104;47.356;19.448;2023-05-29T06:52:38;20.57;63.92
68274;SHT30;55104;47.356;19.448;2023-05-29T06:55:58;20.55;63.36
68274;SHT30;55104;47.356;19.448;2023-05-29T06:59:01;20.51;63.82
68274;SHT30;55104;47.356;19.448;2023-05-29T07:02:05;20.27;63.53
68274;SHT30;55104;47.356;19.448;2023-05-29T07:05:08;20.26;64.15
68274;SHT30;55104;47.356;19.448;2023-05-29T07:08:11;20.26;64.39
68274;SHT30;55104;47.356;19.448;2023-05-29T07:11:13;20.43;65.10
68274;SHT30;55104;47.356;19.448;2023-05-29T07:14:15;20.31;65.17
68274;SHT30;55104;47.356;19.448;2023-05-29T07:17:18;20.26;65.28
68274;SHT30;55104;47.356;19.448;2023-05-29T07:20:24;20.16;65.62
68274;SHT30;55104;47.356;19.448;2023-05-29T07:23:27;20.14;66.30
68274;SHT30;55104;47.356;19.448;2023-05-29T07:26:30;20.10;66.39
68274;SHT30;55104;47.356;19.448;2023-05-29T07:29:33;20.12;66.49
68274;SHT30;55104;47.356;19.448;2023-05-29T07:32:35;20.14;66.00
68274;SHT30;55104;47.356;19.448;2023-05-29T07:35:38;20.16;65.33
68274;SHT30;55104;47.356;19.448;2023-05-29T07:38:40;20.30;65.39
68274;SHT30;55104;47.356;19.448;2023-05-29T07:41:42;20.43;63.81
68274;SHT30;55104;47.356;19.448;2023-05-29T07:44:44;20.67;63.13
68274;SHT30;55104;47.356;19.448;2023-05-29T07:47:48;20.76;62.31
68274;SHT30;55104;47.356;19.448;2023-05-29T07:50:51;20.99;62.08
68274;SHT30;55104;47.356;19.448;2023-05-29T07:53:54;21.23;62.39
68274;SHT30;55104;47.356;19.448;2023-05-29T07:56:56;21.37;60.42
68274;SHT30;55104;47.356;19.448;2023-05-29T07:59:59;21.50;60.36
68274;SHT30;55104;47.356;19.448;2023-05-29T08:03:04;21.68;60.23
68274;SHT30;55104;47.356;19.448;2023-05-29T08:06:25;21.71;59.86
68274;SHT30;55104;47.356;19.448;2023-05-29T08:09:31;21.36;60.87
68274;SHT30;55104;47.356;19.448;2023-05-29T08:12:33;21.50;60.67
68274;SHT30;55104;47.356;19.448;2023-05-29T08:15:37;21.36;60.98
68274;SHT30;55104;47.356;19.448;2023-05-29T08:18:39;21.54;60.65
68274;SHT30;55104;47.356;19.448;2023-05-29T08:21:41;21.55;61.25
68274;SHT30;55104;47.356;19.448;2023-05-29T08:24:43;21.59;61.30
68274;SHT30;55104;47.356;19.448;2023-05-29T08:27:46;21.75;61.28
68274;SHT30;55104;47.356;19.448;2023-05-29T08:30:48;21.88;60.88
68274;SHT30;55104;47.356;19.448;2023-05-29T08:33:50;21.95;61.23
68274;SHT30;55104;47.356;19.448;2023-05-29T08:36:52;21.94;61.31
68274;SHT30;55104;47.356;19.448;2023-05-29T08:39:56;21.62;61.70
68274;SHT30;55104;47.356;19.448;2023-05-29T08:43:19;21.64;62.05
68274;SHT30;55104;47.356;19.448;2023-05-29T08:46:23;21.86;61.25
68274;SHT30;55104;47.356;19.448;2023-05-29T08:49:28;21.99;60.95
68274;SHT30;55104;47.356;19.448;2023-05-29T08:52:33;21.98;61.41
68274;SHT30;55104;47.356;19.448;2023-05-29T08:55:39;22.13;61.29
68274;SHT30;55104;47.356;19.448;2023-05-29T08:58:42;22.26;60.73
68274;SHT30;55104;47.356;19.448;2023-05-29T09:01:45;22.35;61.03
68274;SHT30;55104;47.356;19.448;2023-05-29T09:04:48;22.26;60.75
68274;SHT30;55104;47.356;19.448;2023-05-29T09:07:58;22.13;60.59
68274;SHT30;55104;47.356;19.448;2023-05-29T09:11:00;21.86;61.62
68274;SHT30;55104;47.356;19.448;2023-05-29T09:14:04;22.14;62.70
68274;SHT30;55104;47.356;19.448;2023-05-29T09:17:07;22.20;62.69
68274;SHT30;55104;47.356;19.448;2023-05-29T09:20:16;22.28;62.77
68274;SHT30;55104;47.356;19.448;2023-05-29T09:23:28;22.13;62.79
68274;SHT30;55104;47.356;19.448;2023-05-29T09:26:30;21.74;62.88
68274;SHT30;55104;47.356;19.448;2023-05-29T09:29:33;22.02;63.48
68274;SHT30;55104;47.356;19.448;2023-05-29T09:32:35;22.03;63.28
68274;SHT30;55104;47.356;19.448;2023-05-29T09:35:45;21.89;62.48
68274;SHT30;55104;47.356;19.448;2023-05-29T09:38:47;22.01;63.04
68274;SHT30;55104;47.356;19.448;2023-05-29T09:41:55;22.20;62.50
68274;SHT30;55104;47.356;19.448;2023-05-29T09:44:59;22.26;63.27
68274;SHT30;55104;47.356;19.448;2023-05-29T09:48:01;22.19;62.77
68274;SHT30;55104;47.356;19.448;2023-05-29T09:51:04;22.36;63.04
68274;SHT30;55104;47.356;19.448;2023-05-29T09:54:16;22.29;62.85
68274;SHT30;55104;47.356;19.448;2023-05-29T09:57:18;22.30;64.38
68274;SHT30;55104;47.356;19.448;2023-05-29T10:00:20;22.09;64.21
68274;SHT30;55104;47.356;19.448;2023-05-29T10:03:23;21.98;64.46
68274;SHT30;55104;47.356;19.448;2023-05-29T10:06:27;22.02;64.00
68274;SHT30;55104;47.356;19.448;2023-05-29T10:09:33;22.01;64.12
68274;SHT30;55104;47.356;19.448;2023-05-29T10:12:38;22.19;63.63
68274;SHT30;55104;47.356;19.448;2023-05-29T10:15:45;22.13;64.10
68274;SHT30;55104;47.356;19.448;2023-05-29T10:18:53;22.43;64.55
68274;SHT30;55104;47.356;19.448;2023-05-29T10:21:56;22.72;63.43
68274;SHT30;55104;47.356;19.448;2023-05-29T10:24:59;22.91;63.58
68274;SHT30;55104;47.356;19.448;2023-05-29T10:28:02;23.08;62.11
68274;SHT30;55104;47.356;19.448;2023-05-29T10:31:08;23.16;62.75
68274;SHT30;55104;47.356;19.448;2023-05-29T10:38:10;23.15;61.39
68274;SHT30;55104;47.356;19.448;2023-05-29T10:47:32;23.66;59.77
68274;SHT30;55104;47.356;19.448;2023-05-29T10:50:42;23.81;60.09
68274;SHT30;55104;47.356;19.448;2023-05-29T10:53:44;23.70;59.40
68274;SHT30;55104;47.356;19.448;2023-05-29T10:57:00;23.84;58.57
68274;SHT30;55104;47.356;19.448;2023-05-29T11:00:07;23.95;58.06
68274;SHT30;55104;47.356;19.448;2023-05-29T11:03:15;23.51;59.93
68274;SHT30;55104;47.356;19.448;2023-05-29T11:06:21;23.61;60.17
68274;SHT30;55104;47.356;19.448;2023-05-29T11:09:38;23.98;59.29
68274;SHT30;55104;47.356;19.448;2023-05-29T11:12:57;24.23;58.97
68274;SHT30;55104;47.356;19.448;2023-05-29T11:19:27;24.08;61.38
68274;SHT30;55104;47.356;19.448;2023-05-29T11:22:51;24.02;57.89
68274;SHT30;55104;47.356;19.448;2023-05-29T11:25:55;24.60;57.65
68274;SHT30;55104;47.356;19.448;2023-05-29T11:28:58;24.86;58.04
68274;SHT30;55104;47.356;19.448;2023-05-29T11:32:05;24.83;56.56
68274;SHT30;55104;47.356;19.448;2023-05-29T11:35:10;24.80;56.15
68274;SHT30;55104;47.356;19.448;2023-05-29T11:38:15;25.31;56.77
68274;SHT30;55104;47.356;19.448;2023-05-29T11:41:17;25.54;56.26
68274;SHT30;55104;47.356;19.448;2023-05-29T11:44:19;25.08;56.94
68274;SHT30;55104;47.356;19.448;2023-05-29T11:47:22;25.01;57.49
68274;SHT30;55104;47.356;19.448;2023-05-29T11:50:30;25.29;56.63
68274;SHT30;55104;47.356;19.448;2023-05-29T11:53:34;25.58;54.84
68274;SHT30;55104;47.356;19.448;2023-05-29T11:56:36;25.33;56.93
68274;SHT30;55104;47.356;19.448;2023-05-29T11:59:42;25.53;56.40
68274;SHT30;55104;47.356;19.448;2023-05-29T12:02:45;25.83;55.17
68274;SHT30;55104;47.356;19.448;2023-05-29T12:05:51;25.70;57.40
68274;SHT30;55104;47.356;19.448;2023-05-29T12:08:57;25.52;57.60
68274;SHT30;55104;47.356;19.448;2023-05-29T12:12:02;25.80;57.39
68274;SHT30;55104;47.356;19.448;2023-05-29T12:15:05;26.05;55.99
68274;SHT30;55104;47.356;19.448;2023-05-29T12:18:08;26.24;56.52
68274;SHT30;55104;47.356;19.448;2023-05-29T12:21:10;26.49;56.25
68274;SHT30;55104;47.356;19.448;2023-05-29T12:24:13;26.94;54.27
68274;SHT30;55104;47.356;19.448;2023-05-29T12:27:16;27.10;52.33
68274;SHT30;55104;47.356;19.448;2023-05-29T12:33:33;27.78;52.10
68274;SHT30;55104;47.356;19.448;2023-05-29T12:36:36;27.23;52.43
68274;SHT30;55104;47.356;19.448;2023-05-29T12:39:40;27.11;51.40
68274;SHT30;55104;47.356;19.448;2023-05-29T12:42:42;26.84;50.21
68274;SHT30;55104;47.356;19.448;2023-05-29T12:45:44;26.88;51.08
68274;SHT30;55104;47.356;19.448;2023-05-29T12:48:47;27.01;51.57
68274;SHT30;55104;47.356;19.448;2023-05-29T12:51:49;26.35;51.52
68274;SHT30;55104;47.356;19.448;2023-05-29T12:54:51;26.24;57.82
68274;SHT30;55104;47.356;19.448;2023-05-29T12:57:54;25.97;58.69
68274;SHT30;55104;47.356;19.448;2023-05-29T13:00:57;25.71;60.50
68274;SHT30;55104;47.356;19.448;2023-05-29T13:03:59;25.47;60.72
68274;SHT30;55104;47.356;19.448;2023-05-29T13:07:01;25.79;61.10
68274;SHT30;55104;47.356;19.448;2023-05-29T13:10:03;26.11;60.46
68274;SHT30;55104;47.356;19.448;2023-05-29T13:13:05;26.20;59.65
68274;SHT30;55104;47.356;19.448;2023-05-29T13:16:08;26.14;58.85
68274;SHT30;55104;47.356;19.448;2023-05-29T13:19:10;25.53;59.51
68274;SHT30;55104;47.356;19.448;2023-05-29T13:22:12;25.24;60.81
68274;SHT30;55104;47.356;19.448;2023-05-29T13:25:15;25.03;61.15
68274;SHT30;55104;47.356;19.448;2023-05-29T13:28:18;25.65;60.53
68274;SHT30;55104;47.356;19.448;2023-05-29T13:31:20;25.86;57.66
68274;SHT30;55104;47.356;19.448;2023-05-29T13:34:23;25.90;57.87
68274;SHT30;55104;47.356;19.448;2023-05-29T13:37:30;25.94;58.00
68274;SHT30;55104;47.356;19.448;2023-05-29T13:40:32;25.97;58.20
68274;SHT30;55104;47.356;19.448;2023-05-29T13:43:34;25.96;58.65
68274;SHT30;55104;47.356;19.448;2023-05-29T13:46:45;25.66;57.69
68274;SHT30;55104;47.356;19.448;2023-05-29T13:49:47;26.26;57.31
68274;SHT30;55104;47.356;19.448;2023-05-29T13:52:50;26.26;58.00
68274;SHT30;55104;47.356;19.448;2023-05-29T13:55:52;26.46;56.15
68274;SHT30;55104;47.356;19.448;2023-05-29T13:58:55;26.41;57.23
68274;SHT30;55104;47.356;19.448;2023-05-29T14:01:57;26.86;56.67
68274;SHT30;55104;47.356;19.448;2023-05-29T14:04:59;27.25;54.37
68274;SHT30;55104;47.356;19.448;2023-05-29T14:08:01;27.37;54.84
68274;SHT30;55104;47.356;19.448;2023-05-29T14:11:03;27.74;53.02
68274;SHT30;55104;47.356;19.448;2023-05-29T14:14:06;27.25;53.02
68274;SHT30;55104;47.356;19.448;2023-05-29T14:17:08;27.39;52.06
68274;SHT30;55104;47.356;19.448;2023-05-29T14:20:10;27.32;51.53
68274;SHT30;55104;47.356;19.448;2023-05-29T14:23:14;27.00;51.44
68274;SHT30;55104;47.356;19.448;2023-05-29T14:26:17;27.48;51.65
68274;SHT30;55104;47.356;19.448;2023-05-29T14:29:19;27.96;50.00
68274;SHT30;55104;47.356;19.448;2023-05-29T14:32:21;28.25;50.30
68274;SHT30;55104;47.356;19.448;2023-05-29T14:35:25;28.15;49.84
68274;SHT30;55104;47.356;19.448;2023-05-29T14:38:27;28.27;47.97
68274;SHT30;55104;47.356;19.448;2023-05-29T14:41:29;28.20;47.61
68274;SHT30;55104;47.356;19.448;2023-05-29T14:44:31;27.70;48.84
68274;SHT30;55104;47.356;19.448;2023-05-29T14:47:33;27.86;48.81
68274;SHT30;55104;47.356;19.448;2023-05-29T14:50:35;27.65;47.74
68274;SHT30;55104;47.356;19.448;2023-05-29T14:53:37;27.56;49.18
68274;SHT30;55104;47.356;19.448;2023-05-29T14:56:40;27.48;49.20
68274;SHT30;55104;47.356;19.448;2023-05-29T14:59:42;27.59;46.92
68274;SHT30;55104;47.356;19.448;2023-05-29T15:02:44;27.63;47.88
68274;SHT30;55104;47.356;19.448;2023-05-29T15:05:46;27.39;46.69
68274;SHT30;55104;47.356;19.448;2023-05-29T15:08:48;27.55;48.83
68274;SHT30;55104;47.356;19.448;2023-05-29T15:11:51;27.24;47.13
68274;SHT30;55104;47.356;19.448;2023-05-29T15:14:54;27.53;46.74
68274;SHT30;55104;47.356;19.448;2023-05-29T15:17:56;27.49;46.41
68274;SHT30;55104;47.356;19.448;2023-05-29T15:20:58;27.49;47.16
68274;SHT30;55104;47.356;19.448;2023-05-29T15:24:00;27.43;48.36
68274;SHT30;55104;47.356;19.448;2023-05-29T15:27:02;27.35;48.05
68274;SHT30;55104;47.356;19.448;2023-05-29T15:30:14;27.34;48.16
68274;SHT30;55104;47.356;19.448;2023-05-29T15:33:17;26.73;49.16
68274;SHT30;55104;47.356;19.448;2023-05-29T15:36:19;26.57;50.78
68274;SHT30;55104;47.356;19.448;2023-05-29T15:39:22;26.51;51.39
68274;SHT30;55104;47.356;19.448;2023-05-29T15:42:27;27.01;50.55
68274;SHT30;55104;47.356;19.448;2023-05-29T15:45:29;27.42;50.62
68274;SHT30;55104;47.356;19.448;2023-05-29T15:48:31;27.08;47.62
68274;SHT30;55104;47.356;19.448;2023-05-29T15:51:33;26.90;51.63
68274;SHT30;55104;47.356;19.448;2023-05-29T15:54:38;26.80;49.76
68274;SHT30;55104;47.356;19.448;2023-05-29T15:57:40;26.69;50.86
68274;SHT30;55104;47.356;19.448;2023-05-29T16:00:42;26.66;51.75
68274;SHT30;55104;47.356;19.448;2023-05-29T16:03:44;26.42;52.46
68274;SHT30;55104;47.356;19.448;2023-05-29T16:06:46;25.98;52.90
68274;SHT30;55104;47.356;19.448;2023-05-29T16:09:48;26.11;52.80
68274;SHT30;55104;47.356;19.448;2023-05-29T16:12:51;25.94;53.28
68274;SHT30;55104;47.356;19.448;2023-05-29T16:15:53;26.00;52.55
68274;SHT30;55104;47.356;19.448;2023-05-29T16:18:55;25.50;55.51
68274;SHT30;55104;47.356;19.448;2023-05-29T16:21:57;25.71;55.12
68274;SHT30;55104;47.356;19.448;2023-05-29T16:24:59;25.94;54.58
68274;SHT30;55104;47.356;19.448;2023-05-29T16:28:01;26.11;54.31
68274;SHT30;55104;47.356;19.448;2023-05-29T16:31:03;26.22;53.35
68274;SHT30;55104;47.356;19.448;2023-05-29T16:34:07;25.97;54.01
68274;SHT30;55104;47.356;19.448;2023-05-29T16:37:09;25.83;52.85
68274;SHT30;55104;47.356;19.448;2023-05-29T16:40:11;25.83;52.97
68274;SHT30;55104;47.356;19.448;2023-05-29T16:43:13;25.58;53.05
68274;SHT30;55104;47.356;19.448;2023-05-29T16:46:15;25.53;53.86
68274;SHT30;55104;47.356;19.448;2023-05-29T16:49:17;25.41;54.89
68274;SHT30;55104;47.356;19.448;2023-05-29T16:52:21;25.21;54.51
68274;SHT30;55104;47.356;19.448;2023-05-29T16:55:23;24.98;53.38
68274;SHT30;55104;47.356;19.448;2023-05-29T16:58:26;24.88;53.42
68274;SHT30;55104;47.356;19.448;2023-05-29T17:01:28;24.61;54.03
68274;SHT30;55104;47.356;19.448;2023-05-29T17:04:30;24.56;54.13
68274;SHT30;55104;47.356;19.448;2023-05-29T17:07:34;24.52;55.10
68274;SHT30;55104;47.356;19.448;2023-05-29T17:10:37;24.39;55.93
68274;SHT30;55104;47.356;19.448;2023-05-29T17:13:39;24.39;56.93
68274;SHT30;55104;47.356;19.448;2023-05-29T17:16:41;24.35;56.75
68274;SHT30;55104;47.356;19.448;2023-05-29T17:19:43;24.14;58.09
68274;SHT30;55104;47.356;19.448;2023-05-29T17:22:45;24.04;58.96
68274;SHT30;55104;47.356;19.448;2023-05-29T17:25:47;23.87;59.48
68274;SHT30;55104;47.356;19.448;2023-05-29T17:28:49;23.77;60.16
68274;SHT30;55104;47.356;19.448;2023-05-29T17:31:51;23.60;60.59
68274;SHT30;55104;47.356;19.448;2023-05-29T17:34:53;23.59;60.68
68274;SHT30;55104;47.356;19.448;2023-05-29T17:37:55;23.47;61.00
68274;SHT30;55104;47.356;19.448;2023-05-29T17:40:58;23.43;60.89
68274;SHT30;55104;47.356;19.448;2023-05-29T17:44:01;23.32;61.63
68274;SHT30;55104;47.356;19.448;2023-05-29T17:47:04;23.26;61.12
68274;SHT30;55104;47.356;19.448;2023-05-29T17:50:06;23.13;61.54
68274;SHT30;55104;47.356;19.448;2023-05-29T17:53:08;22.99;62.07
68274;SHT30;55104;47.356;19.448;2023-05-29T17:56:10;22.83;62.75
68274;SHT30;55104;47.356;19.448;2023-05-29T17:59:13;22.68;63.45
68274;SHT30;55104;47.356;19.448;2023-05-29T18:02:15;22.53;63.75
68274;SHT30;55104;47.356;19.448;2023-05-29T18:05:17;22.50;64.17
68274;SHT30;55104;47.356;19.448;2023-05-29T18:08:19;22.35;65.17
68274;SHT30;55104;47.356;19.448;2023-05-29T18:11:21;22.16;66.24
68274;SHT30;55104;47.356;19.448;2023-05-29T18:14:24;22.01;66.51
68274;SHT30;55104;47.356;19.448;2023-05-29T18:17:27;21.86;66.91
68274;SHT30;55104;47.356;19.448;2023-05-29T18:20:29;21.77;67.54
68274;SHT30;55104;47.356;19.448;2023-05-29T18:23:33;21.62;68.78
68274;SHT30;55104;47.356;19.448;2023-05-29T18:26:35;21.51;68.33
68274;SHT30;55104;47.356;19.448;2023-05-29T18:29:37;21.39;68.77
68274;SHT30;55104;47.356;19.448;2023-05-29T18:32:39;21.33;69.11
68274;SHT30;55104;47.356;19.448;2023-05-29T18:35:41;21.24;70.00
68274;SHT30;55104;47.356;19.448;2023-05-29T18:38:43;21.13;70.90
68274;SHT30;55104;47.356;19.448;2023-05-29T18:41:45;21.05;70.97
68274;SHT30;55104;47.356;19.448;2023-05-29T18:44:47;20.98;71.30
68274;SHT30;55104;47.356;19.448;2023-05-29T18:47:50;20.92;71.78
68274;SHT30;55104;47.356;19.448;2023-05-29T18:50:52;20.91;71.88
68274;SHT30;55104;47.356;19.448;2023-05-29T18:53:55;20.89;72.64
68274;SHT30;55104;47.356;19.448;2023-05-29T18:56:58;20.84;72.91
68274;SHT30;55104;47.356;19.448;2023-05-29T19:00:00;20.85;73.08
68274;SHT30;55104;47.356;19.448;2023-05-29T19:03:02;20.86;73.08
68274;SHT30;55104;47.356;19.448;2023-05-29T19:06:05;20.85;73.49
68274;SHT30;55104;47.356;19.448;2023-05-29T19:09:07;20.86;73.19
68274;SHT30;55104;47.356;19.448;2023-05-29T19:12:09;20.84;73.14
68274;SHT30;55104;47.356;19.448;2023-05-29T19:15:12;20.84;73.24
68274;SHT30;55104;47.356;19.448;2023-05-29T19:18:17;20.85;73.04
68274;SHT30;55104;47.356;19.448;2023-05-29T19:21:20;20.82;73.11
68274;SHT30;55104;47.356;19.448;2023-05-29T19:24:22;20.79;72.62
68274;SHT30;55104;47.356;19.448;2023-05-29T19:27:24;20.79;72.88